sensor_id;sensor_type;location;lat;lon;timestamp;P1;durP1;ratioP1;P2;durP2;ratioP2
84577;SDS011;74803;44.756;19.218;2023-12-22T00:02:04;26.60;;;14.80;;
84577;SDS011;74803;44.756;19.218;2023-12-22T00:04:30;22.50;;;13.37;;
84577;SDS011;74803;44.756;19.218;2023-12-22T00:06:55;22.67;;;12.77;;
84577;SDS011;74803;44.756;19.218;2023-12-22T00:09:21;21.50;;;12.77;;
84577;SDS011;74803;44.756;19.218;2023-12-22T00:11:46;19.33;;;12.67;;
84577;SDS011;74803;44.756;19.218;2023-12-22T00:14:12;18.00;;;10.03;;
84577;SDS011;74803;44.756;19.218;2023-12-22T00:16:38;25.63;;;13.40;;
84577;SDS011;74803;44.756;19.218;2023-12-22T00:19:03;28.88;;;15.10;;
84577;SDS011;74803;44.756;19.218;2023-12-22T00:21:29;22.60;;;12.68;;
84577;SDS011;74803;44.756;19.218;2023-12-22T00:23:55;28.48;;;15.52;;
84577;SDS011;74803;44.756;19.218;2023-12-22T00:28:47;22.10;;;12.10;;
84577;SDS011;74803;44.756;19.218;2023-12-22T00:31:13;25.48;;;10.85;;
84577;SDS011;74803;44.756;19.218;2023-12-22T00:33:38;20.90;;;9.88;;
84577;SDS011;74803;44.756;19.218;2023-12-22T00:36:04;20.90;;;11.30;;
84577;SDS011;74803;44.756;19.218;2023-12-22T00:38:30;20.58;;;11.55;;
84577;SDS011;74803;44.756;19.218;2023-12-22T00:40:56;27.23;;;14.93;;
84577;SDS011;74803;44.756;19.218;2023-12-22T00:43:22;27.10;;;16.02;;
84577;SDS011;74803;44.756;19.218;2023-12-22T00:45:47;25.10;;;17.40;;
84577;SDS011;74803;44.756;19.218;2023-12-22T00:48:13;30.53;;;16.87;;
84577;SDS011;74803;44.756;19.218;2023-12-22T00:50:38;27.30;;;16.73;;
84577;SDS011;74803;44.756;19.218;2023-12-22T00:53:04;22.00;;;14.33;;
84577;SDS011;74803;44.756;19.218;2023-12-22T00:55:30;28.47;;;16.50;;
84577;SDS011;74803;44.756;19.218;2023-12-22T00:57:55;20.50;;;13.60;;
84577;SDS011;74803;44.756;19.218;2023-12-22T01:00:22;15.67;;;9.70;;
84577;SDS011;74803;44.756;19.218;2023-12-22T01:02:47;13.55;;;8.13;;
84577;SDS011;74803;44.756;19.218;2023-12-22T01:05:13;14.87;;;10.43;;
84577;SDS011;74803;44.756;19.218;2023-12-22T01:07:39;17.58;;;10.02;;
84577;SDS011;74803;44.756;19.218;2023-12-22T01:10:04;16.47;;;10.10;;
84577;SDS011;74803;44.756;19.218;2023-12-22T01:12:30;19.05;;;10.70;;
84577;SDS011;74803;44.756;19.218;2023-12-22T01:14:56;16.48;;;11.43;;
84577;SDS011;74803;44.756;19.218;2023-12-22T01:17:22;15.63;;;10.73;;
84577;SDS011;74803;44.756;19.218;2023-12-22T01:19:48;18.42;;;10.43;;
84577;SDS011;74803;44.756;19.218;2023-12-22T01:22:14;16.60;;;9.48;;
84577;SDS011;74803;44.756;19.218;2023-12-22T01:24:40;25.87;;;12.67;;
84577;SDS011;74803;44.756;19.218;2023-12-22T01:27:08;28.25;;;17.98;;
84577;SDS011;74803;44.756;19.218;2023-12-22T01:29:34;35.70;;;19.08;;
84577;SDS011;74803;44.756;19.218;2023-12-22T01:32:00;34.88;;;17.63;;
84577;SDS011;74803;44.756;19.218;2023-12-22T01:34:26;26.87;;;17.70;;
84577;SDS011;74803;44.756;19.218;2023-12-22T01:36:51;28.95;;;16.23;;
84577;SDS011;74803;44.756;19.218;2023-12-22T01:39:17;33.33;;;19.38;;
84577;SDS011;74803;44.756;19.218;2023-12-22T01:41:42;30.90;;;17.50;;
84577;SDS011;74803;44.756;19.218;2023-12-22T01:44:08;25.07;;;15.63;;
84577;SDS011;74803;44.756;19.218;2023-12-22T01:46:34;34.08;;;20.33;;
84577;SDS011;74803;44.756;19.218;2023-12-22T01:49:01;26.15;;;16.35;;
84577;SDS011;74803;44.756;19.218;2023-12-22T01:53:57;26.17;;;16.55;;
84577;SDS011;74803;44.756;19.218;2023-12-22T01:56:23;23.13;;;14.95;;
84577;SDS011;74803;44.756;19.218;2023-12-22T01:58:50;28.15;;;17.05;;
84577;SDS011;74803;44.756;19.218;2023-12-22T02:01:22;35.10;;;19.15;;
84577;SDS011;74803;44.756;19.218;2023-12-22T02:03:48;32.97;;;20.90;;
84577;SDS011;74803;44.756;19.218;2023-12-22T02:06:17;34.30;;;22.63;;
84577;SDS011;74803;44.756;19.218;2023-12-22T02:08:45;29.98;;;19.27;;
84577;SDS011;74803;44.756;19.218;2023-12-22T02:11:12;31.90;;;18.10;;
84577;SDS011;74803;44.756;19.218;2023-12-22T02:13:37;38.08;;;23.08;;
84577;SDS011;74803;44.756;19.218;2023-12-22T02:16:04;45.50;;;25.48;;
84577;SDS011;74803;44.756;19.218;2023-12-22T02:18:41;28.67;;;19.50;;
84577;SDS011;74803;44.756;19.218;2023-12-22T02:21:09;27.63;;;16.42;;
84577;SDS011;74803;44.756;19.218;2023-12-22T02:23:34;32.30;;;19.35;;
84577;SDS011;74803;44.756;19.218;2023-12-22T02:26:05;27.52;;;17.48;;
84577;SDS011;74803;44.756;19.218;2023-12-22T02:28:35;32.03;;;19.42;;
84577;SDS011;74803;44.756;19.218;2023-12-22T02:33:37;24.73;;;14.70;;
84577;SDS011;74803;44.756;19.218;2023-12-22T02:36:06;22.23;;;11.05;;
84577;SDS011;74803;44.756;19.218;2023-12-22T02:38:34;17.33;;;10.82;;
84577;SDS011;74803;44.756;19.218;2023-12-22T02:41:01;22.73;;;13.23;;
84577;SDS011;74803;44.756;19.218;2023-12-22T02:43:27;29.17;;;18.77;;
84577;SDS011;74803;44.756;19.218;2023-12-22T02:45:54;50.53;;;28.58;;
84577;SDS011;74803;44.756;19.218;2023-12-22T02:48:19;36.43;;;21.13;;
84577;SDS011;74803;44.756;19.218;2023-12-22T02:50:45;34.10;;;17.00;;
84577;SDS011;74803;44.756;19.218;2023-12-22T02:53:11;35.25;;;19.35;;
84577;SDS011;74803;44.756;19.218;2023-12-22T02:55:36;44.83;;;24.63;;
84577;SDS011;74803;44.756;19.218;2023-12-22T02:58:03;34.73;;;17.80;;
84577;SDS011;74803;44.756;19.218;2023-12-22T03:00:28;22.95;;;13.63;;
84577;SDS011;74803;44.756;19.218;2023-12-22T03:02:55;25.60;;;15.80;;
84577;SDS011;74803;44.756;19.218;2023-12-22T03:05:20;20.38;;;13.00;;
84577;SDS011;74803;44.756;19.218;2023-12-22T03:07:46;19.97;;;12.33;;
84577;SDS011;74803;44.756;19.218;2023-12-22T03:10:12;23.17;;;13.43;;
84577;SDS011;74803;44.756;19.218;2023-12-22T03:12:37;30.60;;;15.23;;
84577;SDS011;74803;44.756;19.218;2023-12-22T03:15:03;22.27;;;14.10;;
84577;SDS011;74803;44.756;19.218;2023-12-22T03:17:29;17.73;;;11.32;;
84577;SDS011;74803;44.756;19.218;2023-12-22T03:19:55;14.45;;;10.07;;
84577;SDS011;74803;44.756;19.218;2023-12-22T03:22:21;15.30;;;9.43;;
84577;SDS011;74803;44.756;19.218;2023-12-22T03:24:47;16.10;;;11.67;;
84577;SDS011;74803;44.756;19.218;2023-12-22T03:27:12;21.73;;;12.47;;
84577;SDS011;74803;44.756;19.218;2023-12-22T03:29:42;24.02;;;11.10;;
84577;SDS011;74803;44.756;19.218;2023-12-22T03:32:08;18.63;;;11.30;;
84577;SDS011;74803;44.756;19.218;2023-12-22T03:34:33;14.73;;;10.73;;
84577;SDS011;74803;44.756;19.218;2023-12-22T03:36:59;17.65;;;10.05;;
84577;SDS011;74803;44.756;19.218;2023-12-22T03:39:25;24.20;;;13.40;;
84577;SDS011;74803;44.756;19.218;2023-12-22T03:41:50;23.10;;;13.40;;
84577;SDS011;74803;44.756;19.218;2023-12-22T03:44:16;19.47;;;11.10;;
84577;SDS011;74803;44.756;19.218;2023-12-22T03:46:42;17.10;;;9.73;;
84577;SDS011;74803;44.756;19.218;2023-12-22T03:49:07;18.43;;;10.10;;
84577;SDS011;74803;44.756;19.218;2023-12-22T03:51:33;13.30;;;8.73;;
84577;SDS011;74803;44.756;19.218;2023-12-22T03:53:59;17.43;;;11.87;;
84577;SDS011;74803;44.756;19.218;2023-12-22T03:56:24;25.13;;;18.00;;
84577;SDS011;74803;44.756;19.218;2023-12-22T03:58:50;62.70;;;56.53;;
84577;SDS011;74803;44.756;19.218;2023-12-22T04:01:15;41.45;;;24.45;;
84577;SDS011;74803;44.756;19.218;2023-12-22T04:03:41;22.47;;;16.60;;
84577;SDS011;74803;44.756;19.218;2023-12-22T04:06:06;22.23;;;16.30;;
84577;SDS011;74803;44.756;19.218;2023-12-22T04:08:32;29.00;;;22.90;;
84577;SDS011;74803;44.756;19.218;2023-12-22T04:10:58;27.20;;;24.33;;
84577;SDS011;74803;44.756;19.218;2023-12-22T04:13:23;39.53;;;26.17;;
84577;SDS011;74803;44.756;19.218;2023-12-22T04:15:49;36.60;;;29.53;;
84577;SDS011;74803;44.756;19.218;2023-12-22T04:18:14;30.63;;;21.20;;
84577;SDS011;74803;44.756;19.218;2023-12-22T04:20:40;28.17;;;20.60;;
84577;SDS011;74803;44.756;19.218;2023-12-22T04:23:06;93.83;;;39.53;;
84577;SDS011;74803;44.756;19.218;2023-12-22T04:25:31;55.47;;;28.70;;
84577;SDS011;74803;44.756;19.218;2023-12-22T04:27:57;40.30;;;24.80;;
84577;SDS011;74803;44.756;19.218;2023-12-22T04:30:22;45.15;;;24.98;;
84577;SDS011;74803;44.756;19.218;2023-12-22T04:32:48;48.00;;;24.13;;
84577;SDS011;74803;44.756;19.218;2023-12-22T04:35:14;56.57;;;32.67;;
84577;SDS011;74803;44.756;19.218;2023-12-22T04:37:39;47.22;;;32.53;;
84577;SDS011;74803;44.756;19.218;2023-12-22T04:40:05;37.27;;;23.13;;
84577;SDS011;74803;44.756;19.218;2023-12-22T04:42:31;55.22;;;35.17;;
84577;SDS011;74803;44.756;19.218;2023-12-22T04:44:57;41.15;;;21.90;;
84577;SDS011;74803;44.756;19.218;2023-12-22T04:47:22;33.87;;;21.83;;
84577;SDS011;74803;44.756;19.218;2023-12-22T04:49:48;44.28;;;29.90;;
84577;SDS011;74803;44.756;19.218;2023-12-22T04:52:14;55.23;;;38.03;;
84577;SDS011;74803;44.756;19.218;2023-12-22T04:54:39;65.07;;;44.00;;
84577;SDS011;74803;44.756;19.218;2023-12-22T04:57:05;246.80;;;157.77;;
84577;SDS011;74803;44.756;19.218;2023-12-22T04:59:31;70.57;;;49.03;;
84577;SDS011;74803;44.756;19.218;2023-12-22T05:01:56;127.23;;;79.73;;
84577;SDS011;74803;44.756;19.218;2023-12-22T05:04:22;78.97;;;57.27;;
84577;SDS011;74803;44.756;19.218;2023-12-22T05:06:48;48.10;;;34.77;;
84577;SDS011;74803;44.756;19.218;2023-12-22T05:09:13;47.47;;;24.73;;
84577;SDS011;74803;44.756;19.218;2023-12-22T05:11:39;40.15;;;29.52;;
84577;SDS011;74803;44.756;19.218;2023-12-22T05:14:05;42.95;;;28.15;;
84577;SDS011;74803;44.756;19.218;2023-12-22T05:16:30;52.37;;;40.00;;
84577;SDS011;74803;44.756;19.218;2023-12-22T05:18:57;36.00;;;21.92;;
84577;SDS011;74803;44.756;19.218;2023-12-22T05:21:23;36.92;;;23.13;;
84577;SDS011;74803;44.756;19.218;2023-12-22T05:23:49;30.45;;;19.75;;
84577;SDS011;74803;44.756;19.218;2023-12-22T05:26:18;45.60;;;25.02;;
84577;SDS011;74803;44.756;19.218;2023-12-22T05:28:44;45.03;;;27.17;;
84577;SDS011;74803;44.756;19.218;2023-12-22T05:31:10;63.42;;;39.40;;
84577;SDS011;74803;44.756;19.218;2023-12-22T05:33:36;102.63;;;63.03;;
84577;SDS011;74803;44.756;19.218;2023-12-22T05:36:01;87.03;;;51.03;;
84577;SDS011;74803;44.756;19.218;2023-12-22T05:38:28;96.95;;;55.25;;
84577;SDS011;74803;44.756;19.218;2023-12-22T05:40:54;94.57;;;59.17;;
84577;SDS011;74803;44.756;19.218;2023-12-22T05:43:19;91.03;;;55.80;;
84577;SDS011;74803;44.756;19.218;2023-12-22T05:45:45;42.80;;;27.23;;
84577;SDS011;74803;44.756;19.218;2023-12-22T05:48:10;43.10;;;24.07;;
84577;SDS011;74803;44.756;19.218;2023-12-22T05:50:36;51.43;;;30.80;;
84577;SDS011;74803;44.756;19.218;2023-12-22T05:53:02;52.05;;;30.23;;
84577;SDS011;74803;44.756;19.218;2023-12-22T05:55:27;42.33;;;28.45;;
84577;SDS011;74803;44.756;19.218;2023-12-22T05:57:53;46.38;;;29.75;;
84577;SDS011;74803;44.756;19.218;2023-12-22T06:00:19;35.15;;;22.50;;
84577;SDS011;74803;44.756;19.218;2023-12-22T06:02:45;35.05;;;23.80;;
84577;SDS011;74803;44.756;19.218;2023-12-22T06:05:11;28.30;;;19.93;;
84577;SDS011;74803;44.756;19.218;2023-12-22T06:07:37;28.55;;;22.25;;
84577;SDS011;74803;44.756;19.218;2023-12-22T06:10:03;28.02;;;19.63;;
84577;SDS011;74803;44.756;19.218;2023-12-22T06:12:32;46.45;;;24.80;;
84577;SDS011;74803;44.756;19.218;2023-12-22T06:14:59;54.83;;;30.77;;
84577;SDS011;74803;44.756;19.218;2023-12-22T06:17:26;38.60;;;23.02;;
84577;SDS011;74803;44.756;19.218;2023-12-22T06:19:51;38.20;;;23.63;;
84577;SDS011;74803;44.756;19.218;2023-12-22T06:22:17;39.37;;;27.93;;
84577;SDS011;74803;44.756;19.218;2023-12-22T06:24:42;40.37;;;26.03;;
84577;SDS011;74803;44.756;19.218;2023-12-22T06:27:08;40.33;;;26.60;;
84577;SDS011;74803;44.756;19.218;2023-12-22T06:29:34;53.00;;;30.07;;
84577;SDS011;74803;44.756;19.218;2023-12-22T06:32:00;50.00;;;25.70;;
84577;SDS011;74803;44.756;19.218;2023-12-22T06:34:26;33.60;;;24.00;;
84577;SDS011;74803;44.756;19.218;2023-12-22T06:36:52;46.47;;;31.33;;
84577;SDS011;74803;44.756;19.218;2023-12-22T06:39:17;54.37;;;29.73;;
84577;SDS011;74803;44.756;19.218;2023-12-22T06:41:44;60.42;;;36.42;;
84577;SDS011;74803;44.756;19.218;2023-12-22T06:44:10;151.25;;;99.18;;
84577;SDS011;74803;44.756;19.218;2023-12-22T06:46:36;40.92;;;28.65;;
84577;SDS011;74803;44.756;19.218;2023-12-22T06:49:01;75.88;;;47.85;;
84577;SDS011;74803;44.756;19.218;2023-12-22T06:51:28;32.15;;;19.65;;
84577;SDS011;74803;44.756;19.218;2023-12-22T06:54:00;35.95;;;23.90;;
84577;SDS011;74803;44.756;19.218;2023-12-22T06:56:26;56.55;;;36.38;;
84577;SDS011;74803;44.756;19.218;2023-12-22T06:58:54;54.38;;;30.33;;
84577;SDS011;74803;44.756;19.218;2023-12-22T07:03:51;69.07;;;43.15;;
84577;SDS011;74803;44.756;19.218;2023-12-22T07:06:17;60.53;;;42.67;;
84577;SDS011;74803;44.756;19.218;2023-12-22T07:14:06;70.05;;;43.42;;
84577;SDS011;74803;44.756;19.218;2023-12-22T07:16:32;66.88;;;39.47;;
84577;SDS011;74803;44.756;19.218;2023-12-22T07:21:32;65.20;;;37.67;;
84577;SDS011;74803;44.756;19.218;2023-12-22T07:23:58;67.03;;;39.58;;
84577;SDS011;74803;44.756;19.218;2023-12-22T07:26:23;65.07;;;35.25;;
84577;SDS011;74803;44.756;19.218;2023-12-22T07:28:51;36.55;;;24.10;;
84577;SDS011;74803;44.756;19.218;2023-12-22T07:31:17;37.28;;;25.45;;
84577;SDS011;74803;44.756;19.218;2023-12-22T07:33:43;39.87;;;25.97;;
84577;SDS011;74803;44.756;19.218;2023-12-22T07:36:09;39.53;;;26.67;;
84577;SDS011;74803;44.756;19.218;2023-12-22T07:38:35;48.40;;;31.08;;
84577;SDS011;74803;44.756;19.218;2023-12-22T07:41:01;45.63;;;31.60;;
84577;SDS011;74803;44.756;19.218;2023-12-22T07:43:27;43.00;;;27.67;;
84577;SDS011;74803;44.756;19.218;2023-12-22T07:45:54;40.42;;;25.20;;
84577;SDS011;74803;44.756;19.218;2023-12-22T07:48:20;39.70;;;25.65;;
84577;SDS011;74803;44.756;19.218;2023-12-22T07:50:46;48.90;;;29.33;;
84577;SDS011;74803;44.756;19.218;2023-12-22T07:53:11;47.17;;;29.60;;
84577;SDS011;74803;44.756;19.218;2023-12-22T07:55:37;60.47;;;35.30;;
84577;SDS011;74803;44.756;19.218;2023-12-22T08:00:29;46.08;;;28.90;;
84577;SDS011;74803;44.756;19.218;2023-12-22T08:02:55;39.42;;;27.02;;
84577;SDS011;74803;44.756;19.218;2023-12-22T08:05:22;38.67;;;24.23;;
84577;SDS011;74803;44.756;19.218;2023-12-22T08:07:48;38.97;;;24.75;;
84577;SDS011;74803;44.756;19.218;2023-12-22T08:10:14;40.17;;;23.33;;
84577;SDS011;74803;44.756;19.218;2023-12-22T08:15:07;41.63;;;25.65;;
84577;SDS011;74803;44.756;19.218;2023-12-22T08:17:36;38.03;;;21.70;;
84577;SDS011;74803;44.756;19.218;2023-12-22T08:20:03;62.30;;;36.28;;
84577;SDS011;74803;44.756;19.218;2023-12-22T08:22:29;48.78;;;31.67;;
84577;SDS011;74803;44.756;19.218;2023-12-22T08:24:54;48.10;;;28.53;;
84577;SDS011;74803;44.756;19.218;2023-12-22T08:27:20;39.47;;;23.30;;
84577;SDS011;74803;44.756;19.218;2023-12-22T08:29:45;36.83;;;23.90;;
84577;SDS011;74803;44.756;19.218;2023-12-22T08:32:11;29.60;;;19.93;;
84577;SDS011;74803;44.756;19.218;2023-12-22T08:34:37;34.65;;;21.15;;
84577;SDS011;74803;44.756;19.218;2023-12-22T08:37:04;39.53;;;26.03;;
84577;SDS011;74803;44.756;19.218;2023-12-22T08:39:30;29.00;;;19.02;;
84577;SDS011;74803;44.756;19.218;2023-12-22T08:41:57;58.83;;;33.97;;
84577;SDS011;74803;44.756;19.218;2023-12-22T08:44:23;60.60;;;29.63;;
84577;SDS011;74803;44.756;19.218;2023-12-22T08:46:49;42.23;;;26.70;;
84577;SDS011;74803;44.756;19.218;2023-12-22T08:49:15;35.60;;;23.15;;
84577;SDS011;74803;44.756;19.218;2023-12-22T08:51:40;45.97;;;30.17;;
84577;SDS011;74803;44.756;19.218;2023-12-22T08:54:06;38.60;;;22.90;;
84577;SDS011;74803;44.756;19.218;2023-12-22T08:56:32;60.40;;;35.40;;
84577;SDS011;74803;44.756;19.218;2023-12-22T08:58:58;57.40;;;32.40;;
84577;SDS011;74803;44.756;19.218;2023-12-22T09:01:26;34.28;;;22.20;;
84577;SDS011;74803;44.756;19.218;2023-12-22T09:03:52;53.17;;;36.30;;
84577;SDS011;74803;44.756;19.218;2023-12-22T09:06:18;38.33;;;27.55;;
84577;SDS011;74803;44.756;19.218;2023-12-22T09:08:48;39.80;;;24.30;;
84577;SDS011;74803;44.756;19.218;2023-12-22T09:11:19;31.05;;;21.25;;
84577;SDS011;74803;44.756;19.218;2023-12-22T09:13:45;58.40;;;37.90;;
84577;SDS011;74803;44.756;19.218;2023-12-22T09:16:11;43.67;;;30.17;;
84577;SDS011;74803;44.756;19.218;2023-12-22T09:18:47;51.33;;;35.57;;
84577;SDS011;74803;44.756;19.218;2023-12-22T09:21:13;51.00;;;36.10;;
84577;SDS011;74803;44.756;19.218;2023-12-22T09:26:46;51.78;;;33.83;;
84577;SDS011;74803;44.756;19.218;2023-12-22T09:29:12;49.28;;;34.13;;
84577;SDS011;74803;44.756;19.218;2023-12-22T09:31:43;55.83;;;39.75;;
84577;SDS011;74803;44.756;19.218;2023-12-22T09:34:09;71.07;;;40.08;;
84577;SDS011;74803;44.756;19.218;2023-12-22T09:36:35;51.83;;;34.50;;
84577;SDS011;74803;44.756;19.218;2023-12-22T09:39:02;65.20;;;44.67;;
84577;SDS011;74803;44.756;19.218;2023-12-22T09:41:27;46.10;;;33.15;;
84577;SDS011;74803;44.756;19.218;2023-12-22T09:46:21;45.47;;;29.63;;
84577;SDS011;74803;44.756;19.218;2023-12-22T09:51:18;51.97;;;33.97;;
84577;SDS011;74803;44.756;19.218;2023-12-22T09:53:45;58.72;;;37.95;;
84577;SDS011;74803;44.756;19.218;2023-12-22T09:56:13;73.45;;;49.60;;
84577;SDS011;74803;44.756;19.218;2023-12-22T09:58:40;93.03;;;58.58;;
84577;SDS011;74803;44.756;19.218;2023-12-22T10:01:08;106.72;;;67.05;;
84577;SDS011;74803;44.756;19.218;2023-12-22T10:03:35;93.70;;;59.28;;
84577;SDS011;74803;44.756;19.218;2023-12-22T10:06:04;93.45;;;57.65;;
84577;SDS011;74803;44.756;19.218;2023-12-22T10:08:31;79.20;;;52.03;;
84577;SDS011;74803;44.756;19.218;2023-12-22T10:10:58;61.17;;;41.33;;
84577;SDS011;74803;44.756;19.218;2023-12-22T10:13:26;57.15;;;42.08;;
84577;SDS011;74803;44.756;19.218;2023-12-22T10:15:53;56.42;;;40.15;;
84577;SDS011;74803;44.756;19.218;2023-12-22T10:18:21;53.88;;;37.67;;
84577;SDS011;74803;44.756;19.218;2023-12-22T10:20:47;61.83;;;42.20;;
84577;SDS011;74803;44.756;19.218;2023-12-22T10:23:13;67.50;;;47.28;;
84577;SDS011;74803;44.756;19.218;2023-12-22T10:25:39;77.63;;;50.75;;
84577;SDS011;74803;44.756;19.218;2023-12-22T10:28:09;89.85;;;62.20;;
84577;SDS011;74803;44.756;19.218;2023-12-22T10:30:35;121.18;;;73.72;;
84577;SDS011;74803;44.756;19.218;2023-12-22T10:33:04;99.57;;;62.83;;
84577;SDS011;74803;44.756;19.218;2023-12-22T10:35:29;100.25;;;63.55;;
84577;SDS011;74803;44.756;19.218;2023-12-22T10:37:55;118.40;;;72.47;;
84577;SDS011;74803;44.756;19.218;2023-12-22T10:42:51;107.80;;;69.93;;
84577;SDS011;74803;44.756;19.218;2023-12-22T10:45:40;114.70;;;74.38;;
84577;SDS011;74803;44.756;19.218;2023-12-22T10:48:06;113.30;;;67.10;;
84577;SDS011;74803;44.756;19.218;2023-12-22T10:50:32;160.40;;;88.53;;
84577;SDS011;74803;44.756;19.218;2023-12-22T10:52:58;68.13;;;42.53;;
84577;SDS011;74803;44.756;19.218;2023-12-22T10:55:23;44.47;;;29.20;;
84577;SDS011;74803;44.756;19.218;2023-12-22T10:57:49;28.33;;;17.50;;
84577;SDS011;74803;44.756;19.218;2023-12-22T11:00:15;25.05;;;15.82;;
84577;SDS011;74803;44.756;19.218;2023-12-22T11:02:42;28.38;;;18.20;;
84577;SDS011;74803;44.756;19.218;2023-12-22T11:05:11;27.67;;;17.38;;
84577;SDS011;74803;44.756;19.218;2023-12-22T11:07:37;35.42;;;17.02;;
84577;SDS011;74803;44.756;19.218;2023-12-22T11:10:07;28.08;;;17.35;;
84577;SDS011;74803;44.756;19.218;2023-12-22T11:12:38;30.80;;;15.80;;
84577;SDS011;74803;44.756;19.218;2023-12-22T11:15:07;26.60;;;17.17;;
84577;SDS011;74803;44.756;19.218;2023-12-22T11:17:39;24.25;;;17.40;;
84577;SDS011;74803;44.756;19.218;2023-12-22T11:20:10;37.50;;;19.08;;
84577;SDS011;74803;44.756;19.218;2023-12-22T11:22:42;22.67;;;16.85;;
84577;SDS011;74803;44.756;19.218;2023-12-22T11:25:08;21.38;;;12.32;;
84577;SDS011;74803;44.756;19.218;2023-12-22T11:27:36;23.05;;;14.80;;
84577;SDS011;74803;44.756;19.218;2023-12-22T11:30:03;28.48;;;17.17;;
84577;SDS011;74803;44.756;19.218;2023-12-22T11:32:33;22.10;;;15.55;;
84577;SDS011;74803;44.756;19.218;2023-12-22T11:34:59;29.60;;;18.02;;
84577;SDS011;74803;44.756;19.218;2023-12-22T11:37:25;26.00;;;16.50;;
84577;SDS011;74803;44.756;19.218;2023-12-22T11:39:52;23.30;;;16.20;;
84577;SDS011;74803;44.756;19.218;2023-12-22T11:42:24;24.85;;;11.93;;
84577;SDS011;74803;44.756;19.218;2023-12-22T11:44:53;21.98;;;13.90;;
84577;SDS011;74803;44.756;19.218;2023-12-22T11:50:15;26.58;;;16.10;;
84577;SDS011;74803;44.756;19.218;2023-12-22T11:53:20;28.60;;;15.27;;
84577;SDS011;74803;44.756;19.218;2023-12-22T11:58:47;19.45;;;12.13;;
84577;SDS011;74803;44.756;19.218;2023-12-22T12:01:21;28.83;;;17.63;;
84577;SDS011;74803;44.756;19.218;2023-12-22T12:03:57;20.58;;;12.82;;
84577;SDS011;74803;44.756;19.218;2023-12-22T12:06:30;18.10;;;11.48;;
84577;SDS011;74803;44.756;19.218;2023-12-22T12:08:59;12.15;;;7.30;;
84577;SDS011;74803;44.756;19.218;2023-12-22T12:14:29;12.75;;;8.10;;
84577;SDS011;74803;44.756;19.218;2023-12-22T12:17:15;17.10;;;10.50;;
84577;SDS011;74803;44.756;19.218;2023-12-22T12:19:43;9.43;;;6.83;;
84577;SDS011;74803;44.756;19.218;2023-12-22T12:22:11;10.23;;;6.65;;
84577;SDS011;74803;44.756;19.218;2023-12-22T12:24:38;13.88;;;7.95;;
84577;SDS011;74803;44.756;19.218;2023-12-22T12:27:04;8.40;;;6.38;;
84577;SDS011;74803;44.756;19.218;2023-12-22T12:29:35;12.23;;;7.65;;
84577;SDS011;74803;44.756;19.218;2023-12-22T12:32:04;16.50;;;9.52;;
84577;SDS011;74803;44.756;19.218;2023-12-22T12:34:31;20.92;;;10.88;;
84577;SDS011;74803;44.756;19.218;2023-12-22T12:36:57;10.57;;;6.65;;
84577;SDS011;74803;44.756;19.218;2023-12-22T12:39:25;11.82;;;7.03;;
84577;SDS011;74803;44.756;19.218;2023-12-22T12:41:56;16.67;;;8.82;;
84577;SDS011;74803;44.756;19.218;2023-12-22T12:44:24;15.23;;;8.90;;
84577;SDS011;74803;44.756;19.218;2023-12-22T12:46:50;32.63;;;17.30;;
84577;SDS011;74803;44.756;19.218;2023-12-22T12:49:16;27.13;;;15.55;;
84577;SDS011;74803;44.756;19.218;2023-12-22T12:51:42;16.35;;;10.15;;
84577;SDS011;74803;44.756;19.218;2023-12-22T12:54:10;20.13;;;11.95;;
84577;SDS011;74803;44.756;19.218;2023-12-22T12:56:45;17.58;;;10.38;;
84577;SDS011;74803;44.756;19.218;2023-12-22T12:59:15;18.27;;;10.75;;
84577;SDS011;74803;44.756;19.218;2023-12-22T13:01:45;14.73;;;10.70;;
84577;SDS011;74803;44.756;19.218;2023-12-22T13:04:12;19.30;;;14.25;;
84577;SDS011;74803;44.756;19.218;2023-12-22T13:06:46;18.67;;;13.32;;
84577;SDS011;74803;44.756;19.218;2023-12-22T13:09:12;26.45;;;16.58;;
84577;SDS011;74803;44.756;19.218;2023-12-22T13:14:05;24.83;;;13.73;;
84577;SDS011;74803;44.756;19.218;2023-12-22T13:16:32;27.42;;;15.63;;
84577;SDS011;74803;44.756;19.218;2023-12-22T13:18:59;24.27;;;13.75;;
84577;SDS011;74803;44.756;19.218;2023-12-22T13:21:31;16.25;;;12.68;;
84577;SDS011;74803;44.756;19.218;2023-12-22T13:24:12;18.33;;;11.68;;
84577;SDS011;74803;44.756;19.218;2023-12-22T13:26:41;24.38;;;15.52;;
84577;SDS011;74803;44.756;19.218;2023-12-22T13:31:33;36.00;;;18.88;;
84577;SDS011;74803;44.756;19.218;2023-12-22T13:34:01;13.25;;;7.68;;
84577;SDS011;74803;44.756;19.218;2023-12-22T13:36:27;11.65;;;5.97;;
84577;SDS011;74803;44.756;19.218;2023-12-22T13:38:58;16.92;;;8.23;;
84577;SDS011;74803;44.756;19.218;2023-12-22T13:41:26;12.75;;;7.80;;
84577;SDS011;74803;44.756;19.218;2023-12-22T13:43:52;9.95;;;5.57;;
84577;SDS011;74803;44.756;19.218;2023-12-22T13:46:18;8.73;;;5.40;;
84577;SDS011;74803;44.756;19.218;2023-12-22T13:48:44;7.57;;;4.43;;
84577;SDS011;74803;44.756;19.218;2023-12-22T13:51:10;30.23;;;16.42;;
84577;SDS011;74803;44.756;19.218;2023-12-22T13:53:46;29.33;;;13.77;;
84577;SDS011;74803;44.756;19.218;2023-12-22T13:56:13;22.10;;;12.00;;
84577;SDS011;74803;44.756;19.218;2023-12-22T13:58:45;22.42;;;12.38;;
84577;SDS011;74803;44.756;19.218;2023-12-22T14:01:15;29.00;;;16.35;;
84577;SDS011;74803;44.756;19.218;2023-12-22T14:03:41;32.30;;;17.13;;
84577;SDS011;74803;44.756;19.218;2023-12-22T14:06:08;14.60;;;8.00;;
84577;SDS011;74803;44.756;19.218;2023-12-22T14:11:03;19.35;;;10.55;;
84577;SDS011;74803;44.756;19.218;2023-12-22T14:13:29;20.43;;;15.27;;
84577;SDS011;74803;44.756;19.218;2023-12-22T14:15:54;23.63;;;17.70;;
84577;SDS011;74803;44.756;19.218;2023-12-22T14:18:58;29.25;;;17.60;;
84577;SDS011;74803;44.756;19.218;2023-12-22T14:21:43;29.73;;;19.85;;
84577;SDS011;74803;44.756;19.218;2023-12-22T14:24:29;243.32;;;52.85;;
84577;SDS011;74803;44.756;19.218;2023-12-22T14:27:07;23.83;;;15.10;;
84577;SDS011;74803;44.756;19.218;2023-12-22T14:29:33;28.13;;;18.55;;
84577;SDS011;74803;44.756;19.218;2023-12-22T14:32:57;52.95;;;24.55;;
84577;SDS011;74803;44.756;19.218;2023-12-22T14:36:23;33.08;;;20.30;;
84577;SDS011;74803;44.756;19.218;2023-12-22T14:39:47;35.15;;;20.33;;
84577;SDS011;74803;44.756;19.218;2023-12-22T14:43:12;32.58;;;19.70;;
84577;SDS011;74803;44.756;19.218;2023-12-22T14:45:52;14.65;;;9.73;;
84577;SDS011;74803;44.756;19.218;2023-12-22T14:48:18;17.00;;;9.67;;
84577;SDS011;74803;44.756;19.218;2023-12-22T14:50:43;20.67;;;14.63;;
84577;SDS011;74803;44.756;19.218;2023-12-22T14:53:09;25.40;;;18.27;;
84577;SDS011;74803;44.756;19.218;2023-12-22T14:55:37;44.50;;;28.77;;
84577;SDS011;74803;44.756;19.218;2023-12-22T14:58:04;40.85;;;24.27;;
84577;SDS011;74803;44.756;19.218;2023-12-22T15:00:32;33.30;;;21.55;;
84577;SDS011;74803;44.756;19.218;2023-12-22T15:02:57;13.73;;;10.03;;